Flight Track Log - Related Links

Times and Time Zones

All times are in EDT time to prevent confusion due to time zone crossing. See the SWA385 flight status page for this flight to view local times or setup timezone preferences in your user account.

Time Position Orientation Groundspeed Altitude Reporting Facility
EDT Latitude Longitude Course Direction KTS MPH feet Rate Location/Type
Sun 07:16:54 PM 41.8000 -87.7333 285° West 161 185 1,800  Level Chicago TRACON
Sun 07:17:48 PM 41.8333 -87.8000 304° West 244 281 3,000 1,385 Climbing Chicago TRACON
Sun 07:18:25 PM 41.8175 -87.8342 238° Southwest 232 267 3,900 2,061 Climbing Chicago Center
Sun 07:19:27 PM 41.8217 -87.9206 274° West 248 285 6,400 2,710 Climbing Chicago Center
Sun 07:20:29 PM 41.8711 -88.0028 309° West 286 329 9,500 3,194 Climbing Chicago Center
Sun 07:21:31 PM 41.9119 -88.1261 294° West 305 351 13,000 2,516 Climbing Chicago Center
Sun 07:22:00 PM 41.8516 -88.5078 285° West  Level FlightAware Approximate
Sun 07:22:33 PM 41.9511 -88.2311 297° West 322 371 14,700  Level Chicago Center
Sun 07:23:35 PM 42.0036 -88.3514 300° West 369 425 16,800 1,935 Climbing Chicago Center
Sun 07:24:37 PM 42.0594 -88.4778 301° West 391 450 18,700 2,081 Climbing Chicago Center
Sun 07:25:39 PM 42.0994 -88.6489 288° West 412 474 21,100 2,081 Climbing Chicago Center
Sun 07:26:41 PM 42.1003 -88.8022 270° West 414 476 23,000 1,839 Climbing Chicago Center
Sun 07:27:43 PM 42.1006 -88.9719 270° West 425 489 24,900 1,790 Climbing Chicago Center
Sun 07:28:45 PM 42.1014 -89.1367 270° West 436 502 26,700 1,597 Climbing Chicago Center
Sun 07:29:47 PM 42.1014 -89.3078 270° West 453 521 28,200 1,440 Climbing Chicago Center
Sun 07:30:50 PM 42.1033 -89.4789 271° West 455 524 29,700 1,584 Climbing Chicago Center
Sun 07:31:52 PM 42.1075 -89.6533 272° West 463 533 31,500 1,548 Climbing Chicago Center
Sun 07:32:54 PM 42.1108 -89.8269 272° West 464 534 32,900 1,210 Climbing Chicago Center
Sun 07:33:56 PM 42.1119 -90.0181 271° West 462 532 34,000 532 Climbing Chicago Center
Sun 07:34:58 PM 42.1247 -90.1908 276° West 467 537 34,000 48 Level Chicago Center
Sun 07:36:00 PM 42.1489 -90.3600 281° West 464 534 34,100 629 Climbing Chicago Center
Sun 07:37:02 PM 42.1711 -90.5306 280° West 466 536 35,300 919 Climbing Chicago Center
Sun 07:38:04 PM 42.2000 -90.7378 281° West 472 543 36,000 339 Climbing Chicago Center
Sun 07:39:06 PM 42.2222 -90.9136 280° West 477 549 36,000  Level Chicago Center
Sun 07:40:08 PM 42.2444 -91.0892 280° West 478 550 36,000  Level Chicago Center
Sun 07:41:10 PM 42.2667 -91.2625 280° West 475 547 36,000  Level Chicago Center
Sun 07:42:12 PM 42.2883 -91.4367 280° West 471 542 36,000  Level Chicago Center
Sun 07:43:15 PM 42.3150 -91.6467 280° West 473 544 36,000  Level Chicago Center
Sun 07:44:17 PM 42.3356 -91.8194 279° West 469 540 36,000  Level Chicago Center
Sun 07:45:19 PM 42.3572 -91.9928 280° West 469 540 36,000  Level Chicago Center
Sun 07:46:21 PM 42.3775 -92.1653 279° West 467 537 36,000  Level Chicago Center
Sun 07:47:23 PM 42.3986 -92.3386 279° West 469 540 36,000  Level Chicago Center
Sun 07:48:25 PM 42.4181 -92.5100 279° West 466 536 36,000  Level Chicago Center
Sun 07:49:27 PM 42.4419 -92.7181 279° West 468 539 36,000  Level Chicago Center
Sun 07:50:29 PM 42.4619 -92.8911 279° West 469 540 36,000  Level Chicago Center
Sun 07:51:31 PM 42.4806 -93.0664 278° West 471 542 36,000  Level Chicago Center
Sun 07:52:29 PM 42.4997 -93.2422 278° West 476 548 36,000  Level Minneapolis Center
Sun 07:53:31 PM 42.5189 -93.4150 279° West 470 541 36,000  Level Minneapolis Center
Sun 07:54:45 PM 42.5383 -93.5881 279° West 469 540 36,000  Level Minneapolis Center
Sun 07:55:48 PM 42.5628 -93.8297 278° West 466 536 36,000  Level Minneapolis Center
Sun 07:56:50 PM 42.5819 -94.0008 279° West 464 534 36,000  Level Minneapolis Center
Sun 07:57:51 PM 42.6025 -94.1739 279° West 467 537 36,000  Level Minneapolis Center
Sun 07:58:53 PM 42.6133 -94.3458 275° West 465 535 36,000  Level Minneapolis Center
Sun 07:59:57 PM 42.6083 -94.5211 268° West 469 540 36,000  Level Minneapolis Center
Sun 08:00:59 PM 42.6050 -94.7378 269° West 467 537 36,000  Level Minneapolis Center
Sun 08:02:01 PM 42.6031 -94.9117 269° West 466 536 36,000  Level Minneapolis Center
Sun 08:03:03 PM 42.5994 -95.0861 268° West 465 535 36,000  Level Minneapolis Center
Sun 08:04:05 PM 42.5956 -95.2611 268° West 466 536 36,000  Level Minneapolis Center
Sun 08:05:07 PM 42.5919 -95.4347 268° West 464 534 36,000  Level Minneapolis Center
Sun 08:06:09 PM 42.5869 -95.6100 268° West 465 535 36,000  Level Minneapolis Center
Sun 08:07:22 PM 42.5822 -95.8169 268° West 460 529 36,000  Level Minneapolis Center
Sun 08:08:25 PM 42.5761 -96.0250 268° West 462 532 36,000  Level Minneapolis Center
Sun 08:09:39 PM 42.5714 -96.2039 268° West 468 539 36,000  Level Minneapolis Center
Sun 08:10:41 PM 42.5653 -96.4097 268° West 463 533 36,000  Level Minneapolis Center
Sun 08:11:43 PM 42.5597 -96.5822 268° West 461 531 36,000  Level Minneapolis Center
Sun 08:12:45 PM 42.5531 -96.7561 267° West 463 533 36,000  Level Minneapolis Center
Sun 08:13:46 PM 42.5458 -96.9633 267° West 461 531 36,000  Level Minneapolis Center
Sun 08:14:48 PM 42.5397 -97.1347 267° West 459 528 36,000  Level Minneapolis Center
Sun 08:15:50 PM 42.5325 -97.3061 267° West 458 527 36,000  Level Minneapolis Center
Sun 08:16:52 PM 42.5258 -97.4778 267° West 457 526 36,000  Level Minneapolis Center
Sun 08:17:54 PM 42.5194 -97.6481 267° West 455 524 36,000  Level Minneapolis Center
Sun 08:18:56 PM 42.5117 -97.8197 267° West 457 526 36,000  Level Minneapolis Center
Sun 08:19:58 PM 42.5042 -97.9925 267° West 452 520 36,000  Level Minneapolis Center
Sun 08:21:00 PM 42.4661 -98.1900 255° West 451 519 36,000  Level Minneapolis Center
Sun 08:22:02 PM 42.4308 -98.3547 254° West 456 525 36,000  Level Minneapolis Center
Sun 08:23:04 PM 42.3981 -98.5197 255° West 456 525 36,000  Level Minneapolis Center
Sun 08:24:05 PM 42.3708 -98.6511 254° West 455 524 36,000  Level Minneapolis Center
Sun 08:24:41 PM 42.3439 -98.7833 255° West 455 524 36,000  Level Denver Center
Sun 08:25:43 PM 42.3125 -98.9492 256° West 457 526 36,000  Level Denver Center
Sun 08:26:44 PM 42.2800 -99.1119 255° West 452 520 36,000  Level Denver Center
Sun 08:27:46 PM 42.2475 -99.2778 255° West 457 526 36,000  Level Denver Center
Sun 08:28:48 PM 42.1825 -99.4617 245° Southwest 455 524 36,000  Level Denver Center
Sun 08:29:50 PM 42.1217 -99.6117 241° Southwest 457 526 36,000  Level Denver Center
Sun 08:30:52 PM 42.0558 -99.7600 239° Southwest 457 526 36,000  Level Denver Center
Sun 08:31:54 PM 41.9928 -99.9011 239° Southwest 458 527 36,000  Level Denver Center
Sun 08:32:56 PM 41.9297 -100.0689 243° Southwest 454 522 36,000  Level Denver Center
Sun 08:33:58 PM 41.9186 -100.2306 265° West 456 525 36,000  Level Denver Center
Sun 08:35:00 PM 41.9133 -100.4189 268° West 453 521 36,000  Level Denver Center
Sun 08:36:02 PM 41.9078 -100.5797 267° West 453 521 36,000  Level Denver Center
Sun 08:37:04 PM 41.9006 -100.7661 267° West 451 519 36,000  Level Denver Center
Sun 08:38:06 PM 41.8947 -100.9253 267° West 449 517 36,000  Level Denver Center
Sun 08:39:08 PM 41.8869 -101.1108 267° West 449 517 36,000  Level Denver Center
Sun 08:40:10 PM 41.8792 -101.2714 266° West 453 521 36,000  Level Denver Center
Sun 08:41:12 PM 41.8708 -101.4600 267° West 455 524 36,000  Level Denver Center
Sun 08:42:14 PM 41.8631 -101.6206 266° West 454 522 36,000  Level Denver Center
Sun 08:43:16 PM 41.8533 -101.8072 266° West 451 519 36,000  Level Denver Center
Sun 08:44:18 PM 41.8458 -101.9650 266° West 447 514 36,000  Level Denver Center
Sun 08:45:20 PM 41.8394 -102.1517 267° West 451 519 36,000  Level Denver Center
Sun 08:46:22 PM 41.8417 -102.3147 271° West 445 512 36,000  Level Denver Center
Sun 08:47:24 PM 41.8533 -102.4731 276° West 449 517 36,000  Level Denver Center
Sun 08:48:25 PM 41.9239 -102.6358 300° West 455 524 36,000  Level Denver Center
Sun 08:49:27 PM 41.9858 -102.7747 301° West 454 522 36,000  Level Denver Center
Sun 08:50:29 PM 42.0561 -102.9367 300° West 450 518 36,000 339 Level Denver Center
Sun 08:51:31 PM 42.0731 -103.0911 278° West 442 509 36,700 968 Climbing Denver Center
Sun 08:52:33 PM 42.0700 -103.2739 269° West 439 505 38,000 629 Climbing Denver Center
Sun 08:53:35 PM 42.0672 -103.4292 269° West 435 501 38,000  Level Denver Center
Sun 08:54:37 PM 42.0633 -103.6103 268° West 432 497 38,000  Level Denver Center
Sun 08:55:39 PM 42.0586 -103.7656 268° West 436 502 38,000  Level Denver Center
Sun 08:56:41 PM 42.0550 -103.9203 268° West 433 498 38,000  Level Denver Center
Sun 08:57:43 PM 42.0497 -104.1011 268° West 434 499 38,000  Level Denver Center
Sun 08:58:44 PM 42.0456 -104.2544 268° West 430 495 38,000  Level Denver Center
Sun 08:59:46 PM 42.0406 -104.4333 268° West 426 490 38,000  Level Denver Center
Sun 09:00:48 PM 42.0356 -104.5864 268° West 425 489 38,000  Level Denver Center
Sun 09:01:50 PM 42.0292 -104.7647 267° West 426 490 38,000  Level Denver Center
Sun 09:02:52 PM 42.0250 -104.9181 268° West 427 491 38,000  Level Denver Center
Sun 09:03:54 PM 42.0192 -105.0708 267° West 426 490 38,000  Level Denver Center
Sun 09:04:55 PM 42.0128 -105.2483 267° West 425 489 38,000  Level Denver Center
Sun 09:05:57 PM 42.0072 -105.4031 267° West 430 495 38,000  Level Denver Center
Sun 09:06:59 PM 41.9994 -105.5800 267° West 425 489 38,000  Level Denver Center
Sun 09:08:01 PM 41.9936 -105.7325 267° West 426 490 38,000  Level Denver Center
Sun 09:09:03 PM 41.9853 -105.9069 266° West 421 484 38,000  Level Denver Center
Sun 09:10:05 PM 41.9803 -106.0603 268° West 426 490 38,000  Level Denver Center
Sun 09:11:06 PM 41.9725 -106.2119 266° West 426 490 38,000  Level Denver Center
Sun 09:12:08 PM 41.9633 -106.3886 266° West 424 488 38,000  Level Denver Center
Sun 09:13:10 PM 41.9575 -106.5492 267° West 429 494 38,000  Level Denver Center
Sun 09:14:12 PM 41.9497 -106.7017 266° West 429 494 38,000  Level Denver Center
Sun 09:15:14 PM 41.9397 -106.8794 266° West 428 493 38,000  Level Denver Center
Sun 09:16:15 PM 41.9319 -107.0314 266° West 427 491 38,000  Level Denver Center
Sun 09:17:17 PM 41.9231 -107.2081 266° West 427 491 38,000  Level Denver Center
Sun 09:18:19 PM 41.9147 -107.3589 266° West 425 489 38,000  Level Denver Center
Sun 09:19:21 PM 41.9044 -107.5344 266° West 425 489 38,000  Level Denver Center
Sun 09:20:23 PM 41.8953 -107.6847 265° West 424 488 38,000  Level Denver Center
Sun 09:21:24 PM 41.8856 -107.8608 266° West 423 487 38,000  Level Denver Center
Sun 09:22:26 PM 41.8753 -108.0111 265° West 424 488 38,000  Level Denver Center
Sun 09:23:28 PM 41.8661 -108.1611 265° West 424 488 38,000  Level Denver Center
Sun 09:24:29 PM 41.8553 -108.3378 265° West 426 490 38,000  Level Denver Center
Sun 09:25:32 PM 41.8450 -108.4886 265° West 427 491 38,000  Level Denver Center
Sun 09:26:59 PM 41.8278 -108.7411 265° West 427 491 38,000  Level Salt Lake Center
Sun 09:28:00 PM 41.8178 -108.8900 265° West 424 488 38,000  Level Salt Lake Center
Sun 09:29:02 PM 41.8058 -109.0625 265° West 420 483 38,000  Level Salt Lake Center
Sun 09:30:04 PM 41.7961 -109.2081 265° West 415 478 38,000  Level Salt Lake Center
Sun 09:31:06 PM 41.7853 -109.3533 264° West 414 476 38,000  Level Salt Lake Center
Sun 09:32:07 PM 41.7717 -109.5253 264° West 417 480 38,000  Level Salt Lake Center
Sun 09:33:09 PM 41.7603 -109.6719 264° West 417 480 38,000  Level Salt Lake Center
Sun 09:34:11 PM 41.7469 -109.8439 264° West 417 480 38,000  Level Salt Lake Center
Sun 09:35:13 PM 41.7350 -109.9922 264° West 419 482 38,000  Level Salt Lake Center
Sun 09:36:15 PM 41.7214 -110.1617 264° West 414 476 38,000  Level Salt Lake Center
Sun 09:37:16 PM 41.7097 -110.3064 264° West 411 473 38,000  Level Salt Lake Center
Sun 09:38:18 PM 41.6956 -110.4742 264° West 407 468 38,000  Level Salt Lake Center
Sun 09:39:20 PM 41.6831 -110.6214 264° West 415 478 38,000  Level Salt Lake Center
Sun 09:40:22 PM 41.6694 -110.7922 264° West 415 478 38,000  Level Salt Lake Center
Sun 09:41:24 PM 41.6550 -110.9489 263° West 415 478 38,000  Level Salt Lake Center
Sun 09:42:25 PM 41.6406 -111.1019 263° West 417 480 38,000  Level Salt Lake Center
Sun 09:43:27 PM 41.6267 -111.2558 263° West 420 483 38,000  Level Salt Lake Center
Sun 09:44:29 PM 41.6128 -111.4114 263° West 423 487 38,000  Level Salt Lake Center
Sun 09:45:31 PM 41.5978 -111.5647 263° West 420 483 38,000  Level Salt Lake Center
Sun 09:46:33 PM 41.5811 -111.7489 263° West 421 484 38,000  Level Salt Lake Center
Sun 09:47:34 PM 41.5672 -111.9008 263° West 417 480 38,000  Level Salt Lake Center
Sun 09:48:36 PM 41.5522 -112.0514 262° West 414 476 38,000  Level Salt Lake Center
Sun 09:49:38 PM 41.5375 -112.1997 262° West 407 468 38,000  Level Salt Lake Center
Sun 09:50:40 PM 41.5228 -112.3489 263° West 408 470 38,000  Level Salt Lake Center
Sun 09:51:42 PM 41.5083 -112.4978 263° West 408 470 38,000  Level Salt Lake Center
Sun 09:52:44 PM 41.4886 -112.6778 262° West 411 473 38,000  Level Salt Lake Center
Sun 09:53:45 PM 41.4736 -112.8300 263° West 415 478 38,000  Level Salt Lake Center
Sun 09:54:47 PM 41.4575 -112.9828 262° West 417 480 38,000  Level Salt Lake Center
Sun 09:55:49 PM 41.4397 -113.1381 261° West 423 487 38,000  Level Salt Lake Center
Sun 09:56:51 PM 41.4228 -113.2922 262° West 423 487 38,000  Level Salt Lake Center
Sun 09:57:53 PM 41.4064 -113.4458 262° West 420 483 38,000  Level Salt Lake Center
Sun 09:58:54 PM 41.3869 -113.6261 262° West 412 474 38,000  Level Salt Lake Center
Sun 09:59:56 PM 41.3697 -113.7758 261° West 410 472 38,000  Level Salt Lake Center
Sun 10:00:58 PM 41.3439 -113.9222 257° West 409 471 38,000  Level Salt Lake Center
Sun 10:02:00 PM 41.2992 -114.0631 247° West 410 472 38,000  Level Salt Lake Center
Sun 10:03:01 PM 41.2583 -114.2031 249° West 409 471 38,000  Level Salt Lake Center
Sun 10:04:03 PM 41.2178 -114.3433 249° West 409 471 38,000  Level Salt Lake Center
Sun 10:05:05 PM 41.1736 -114.4828 247° West 410 472 38,000  Level Salt Lake Center
Sun 10:06:07 PM 41.1214 -114.6531 248° West 416 479 38,000  Level Salt Lake Center
Sun 10:07:08 PM 41.0764 -114.7964 247° West 421 484 38,000  Level Salt Lake Center
Sun 10:08:10 PM 41.0297 -114.9422 247° West 422 486 38,000  Level Salt Lake Center
Sun 10:09:12 PM 40.9836 -115.0806 246° West 427 491 38,000  Level Salt Lake Center
Sun 10:10:14 PM 40.9347 -115.2417 248° West 424 488 38,000  Level Salt Lake Center
Sun 10:11:15 PM 40.8936 -115.3775 248° West 418 481 38,000  Level Salt Lake Center
Sun 10:12:17 PM 40.8428 -115.5333 247° West 414 476 38,000  Level Salt Lake Center
Sun 10:13:19 PM 40.7986 -115.6658 246° West 413 475 38,000  Level Salt Lake Center
Sun 10:14:21 PM 40.7544 -115.7967 246° West 409 471 38,000  Level Salt Lake Center
Sun 10:15:22 PM 40.7053 -115.9483 247° West 403 464 38,000  Level Salt Lake Center
Sun 10:16:24 PM 40.6656 -116.0797 248° West 402 463 38,000  Level Salt Lake Center
Sun 10:17:25 PM 40.6133 -116.2314 246° West 406 467 38,000  Level Salt Lake Center
Sun 10:18:27 PM 40.5703 -116.3611 246° West 405 466 38,000  Level Salt Lake Center
Sun 10:19:29 PM 40.5214 -116.5117 247° West 402 463 38,000  Level Salt Lake Center
Sun 10:20:30 PM 40.4783 -116.6403 246° West 402 463 38,000  Level Salt Lake Center
Sun 10:21:32 PM 40.4322 -116.7758 246° West 403 464 38,000  Level Salt Lake Center
Sun 10:22:34 PM 40.3856 -116.9106 246° West 406 467 38,000  Level Salt Lake Center
Sun 10:23:35 PM 40.3350 -117.0644 247° West 413 475 38,000  Level Salt Lake Center
Sun 10:24:37 PM 40.2911 -117.1906 246° West 402 463 38,000  Level Salt Lake Center
Sun 10:25:39 PM 40.2397 -117.3411 246° West 405 466 38,000  Level Salt Lake Center
Sun 10:26:40 PM 40.1947 -117.4708 246° West 409 471 38,000  Level Salt Lake Center
Sun 10:27:42 PM 40.1492 -117.6017 246° West 411 473 38,000  Level Salt Lake Center
Sun 10:28:43 PM 40.0969 -117.7539 246° West 411 473 38,000  Level Salt Lake Center
Sun 10:29:45 PM 40.0511 -117.8853 246° West 411 473 38,000  Level Salt Lake Center
Sun 10:30:47 PM 40.0033 -118.0186 245° Southwest 408 470 38,000  Level Salt Lake Center
Sun 10:31:48 PM 39.9564 -118.1522 245° Southwest 406 467 38,000  Level Salt Lake Center
Sun 10:32:50 PM 39.9003 -118.3117 245° Southwest 405 466 38,000  Level Salt Lake Center
Sun 10:33:52 PM 39.8539 -118.4425 245° Southwest 403 464 38,000 -195 Level Salt Lake Center
Sun 10:34:53 PM 39.8061 -118.5756 245° Southwest 407 468 37,600 -634 Descending Salt Lake Center
Sun 10:35:55 PM 39.7589 -118.7078 245° Southwest 408 470 36,700 -919 Descending Salt Lake Center
Sun 10:36:57 PM 39.7103 -118.8403 245° Southwest 410 472 35,700 -829 Descending Salt Lake Center
Sun 10:37:58 PM 39.6636 -118.9711 245° Southwest 405 466 35,000 -284 Descending Salt Lake Center
Sun 10:39:25 PM 39.5872 -119.1783 244° Southwest 402 463 35,000 -405 Level Oakland Center
Sun 10:40:26 PM 39.5394 -119.3092 245° Southwest 404 465 34,000 -934 Descending Oakland Center
Sun 10:41:27 PM 39.4903 -119.4414 244° Southwest 408 470 33,100 -934 Descending Oakland Center
Sun 10:42:28 PM 39.4411 -119.5772 245° Southwest 416 479 32,100 -1,317 Descending Oakland Center
Sun 10:43:30 PM 39.3894 -119.7125 244° Southwest 420 483 30,400 -1,902 Descending Oakland Center
Sun 10:44:31 PM 39.3397 -119.8447 244° Southwest 413 475 28,200 -2,164 Descending Oakland Center
Sun 10:45:32 PM 39.2922 -119.9708 244° Southwest 398 458 26,000 -2,146 Descending Oakland Center
Sun 10:46:34 PM 39.2458 -120.0939 244° Southwest 385 443 23,800 -2,293 Descending Oakland Center
Sun 10:47:35 PM 39.1922 -120.2344 244° Southwest 371 427 21,300 -2,213 Descending Oakland Center
Sun 10:48:36 PM 39.1572 -120.3539 249° West 361 415 19,300 -2,000 Descending Oakland Center
Sun 10:49:38 PM 39.1281 -120.4728 252° West 352 405 17,200 -1,610 Descending Oakland Center
Sun 10:50:39 PM 39.0978 -120.5917 252° West 351 404 16,000 -1,377 Descending Oakland Center
Sun 10:51:40 PM 39.0658 -120.7119 251° West 354 407 14,400 -2,066 Descending Oakland Center
Sun 10:52:41 PM 39.0350 -120.8364 252° West 363 418 11,800 -2,000 Descending Oakland Center
Sun 10:53:43 PM 39.0031 -120.9564 251° West 360 414 10,300 -1,024 Descending Oakland Center
Sun 10:54:44 PM 38.9778 -121.0553 252° West 303 349 9,700 -885 Descending Oakland Center
Sun 10:55:45 PM 38.9531 -121.1500 251° West 283 326 8,500 -1,319 Descending Oakland Center
Sun 10:56:15 PM 38.9333 -121.2167 249° West 271 312 7,700 -1,416 Descending Northern Cal TRACON
Sun 10:57:14 PM 38.9167 -121.3000 256° West 270 311 6,400 -1,316 Descending Northern Cal TRACON
Sun 10:58:09 PM 38.8833 -121.3833 243° Southwest 262 302 5,200 -730 Descending Northern Cal TRACON
Sun 10:59:09 PM 38.8500 -121.4500 237° Southwest 205 236 5,000 -750 Descending Northern Cal TRACON
Sun 11:00:09 PM 38.8333 -121.5000 247° West 194 223 3,700 -1,450 Descending Northern Cal TRACON
Sun 11:01:09 PM 38.8000 -121.5667 237° Southwest 185 213 2,100 -1,250 Descending Northern Cal TRACON
Sun 11:02:09 PM 38.7667 -121.6000 218° Southwest 155 178 1,200 -800 Descending Northern Cal TRACON
Sun 11:03:09 PM 38.7333 -121.6000 180° South 131 151 500 -700 Descending Northern Cal TRACON
Sun 11:05:00 PM 38.6954 -121.5908 218° Southwest  Level Estimated
Sun 11:12:00 PM 38.6954 -121.5908 218° Southwest  Level Estimated

Login

Don't have an account? Register now (free) for customized features, flight alerts, and more!